08:53
Airports
History
Links
Donate
Help keep this website running!
PayPal
Bitcoin
This page is community maintained. The information is intended for PC simulator navigation or reference.
Always use approved charts for navigation.
Z47
Basin CreekUpdated 21-May-2014
Basin Creek (Z47)
Nome, Alaska, United States (99762)
4
Lat/Lng:64° 40' 47.26" N / 165° 17' 59.41" W
64.679794 / -165.299836
Elevation:140'ft / 43mMSL
Declination:E017°
ID / ICAO:Z47
FAA:Z47
Runways:1
Longest:16-34
Gravel 531m / 1,742ft
(Edited 2014-05-21) [ Sign in to Edit ]
Nearby Weather07:53 GMT 2018-01-20
Nearby weather at PAOM, Nome located 12.4 nautical miles from Z47
Altimeter: 30.42
Visibility: 10.0 statute miles
Wind: 3 knots (from 360°)
Temp: -27°c / -17°f
Humidity: 82.9%

METAR: PAOM 200753Z 36003KT 10SM CLR M27/M29 A3042 RMK AO2 SLP302 T12671289

(Powered by phpweather)
Nearby VORs <50NM
Nearby NDBs
Runway 16 / 34
Dimensions:531.1 x 10.1m 1742' x 33'ft
Surface:Gravel
Runway 16 [A]Runway 34 [B]
Heading:159°MH  176°TH339°MH   356°TH
Lat:
Lng:
64° 40' 55.96"N
165° 18' 0.48"W
64° 40' 38.56"N
165° 17' 58.35"W
User Notes and Comments
64° 40' 47.26" N / 165° 17' 59.41" W
Distance To
Airport ID:
Nearby Airports
4 Nome City Field 11.9 NM
94Z SSW 192°
(U) Nome 12.4 NM
PAOM ( WX ) SSW 200°
4 Salmon Lake 18.0 NM
Z81 NNE 28°
4 Feather River 26.7 NM
3Z1 WNW 293°
(R) Solomon State Field 26.7 NM
AK26 ESE 107°
4 Teller 49.2 NM
PATE NW 321°
4 Council 49.3 NM
K29 ENE 72°
VFR Chart
Flight Planning at SkyVector.com